createdAt,value
2018-06-05T00:00:45.865Z,22.47
2018-06-05T00:03:14.098Z,22.70
2018-06-05T00:05:42.352Z,23.93
2018-06-05T00:08:10.578Z,24.53
2018-06-05T00:10:38.859Z,25.57
2018-06-05T00:13:07.069Z,23.90
2018-06-05T00:15:35.326Z,23.73
2018-06-05T00:18:03.624Z,23.63
2018-06-05T00:20:31.858Z,24.90
2018-06-05T00:23:00.129Z,26.70
2018-06-05T00:25:28.346Z,23.73
2018-06-05T00:27:56.586Z,25.93
2018-06-05T00:30:24.808Z,26.23
2018-06-05T00:32:53.028Z,24.57
2018-06-05T00:35:21.328Z,24.77
2018-06-05T00:37:49.574Z,24.30
2018-06-05T00:40:17.805Z,24.73
2018-06-05T00:42:46.037Z,24.60
2018-06-05T00:45:14.259Z,24.87
2018-06-05T00:47:42.537Z,26.00
2018-06-05T00:50:10.773Z,25.47
2018-06-05T00:52:39.013Z,24.07
2018-06-05T00:55:07.251Z,23.27
2018-06-05T00:57:35.476Z,23.87
2018-06-05T01:00:03.746Z,22.97
2018-06-05T01:02:31.966Z,22.57
2018-06-05T01:05:00.246Z,22.17
2018-06-05T01:07:28.496Z,24.50
2018-06-05T01:09:56.750Z,23.23
2018-06-05T01:12:24.988Z,23.47
2018-06-05T01:14:53.190Z,23.97
2018-06-05T01:17:21.478Z,23.53
2018-06-05T01:19:49.709Z,21.83
2018-06-05T01:22:17.939Z,23.33
2018-06-05T01:24:46.165Z,22.57
2018-06-05T01:27:14.399Z,24.07
2018-06-05T01:29:42.631Z,24.30
2018-06-05T01:32:10.857Z,23.20
2018-06-05T01:34:39.111Z,23.53
2018-06-05T01:37:07.349Z,22.77
2018-06-05T01:39:35.586Z,22.03
2018-06-05T01:42:03.895Z,22.30
2018-06-05T01:44:32.120Z,23.77
2018-06-05T01:47:00.427Z,22.80
2018-06-05T01:49:34.209Z,22.03
2018-06-05T01:52:02.474Z,22.63
2018-06-05T01:54:30.682Z,24.47
2018-06-05T01:56:58.899Z,22.67
2018-06-05T01:59:27.106Z,22.60
2018-06-05T02:01:55.362Z,23.10
2018-06-05T02:04:23.607Z,22.73
2018-06-05T02:06:51.859Z,24.23
2018-06-05T02:09:20.100Z,22.33
2018-06-05T02:11:48.329Z,25.87
2018-06-05T02:14:16.591Z,22.93
2018-06-05T02:16:44.797Z,22.07
2018-06-05T02:19:13.001Z,24.00
2018-06-05T02:21:41.265Z,24.23
2018-06-05T02:24:09.497Z,25.07
2018-06-05T02:26:37.778Z,24.10
2018-06-05T02:29:05.989Z,23.77
2018-06-05T02:31:34.215Z,25.20
2018-06-05T02:34:02.460Z,24.33
2018-06-05T02:36:30.692Z,24.37
2018-06-05T02:38:58.963Z,25.20
2018-06-05T02:41:27.190Z,23.33
2018-06-05T02:43:55.396Z,25.27
2018-06-05T02:46:23.676Z,24.53
2018-06-05T02:48:51.898Z,24.27
2018-06-05T02:51:20.163Z,24.43
2018-06-05T02:53:48.454Z,24.57
2018-06-05T02:56:16.686Z,23.23
2018-06-05T02:58:44.932Z,24.00
2018-06-05T03:01:13.300Z,21.80
2018-06-05T03:03:41.536Z,22.83
2018-06-05T03:06:09.766Z,21.90
2018-06-05T03:08:38.014Z,24.23
2018-06-05T03:11:06.258Z,21.73
2018-06-05T03:13:34.461Z,22.50
2018-06-05T03:16:02.681Z,25.53
2018-06-05T03:18:30.881Z,22.40
2018-06-05T03:20:59.144Z,24.60
2018-06-05T03:23:27.361Z,22.03
2018-06-05T03:25:55.593Z,23.17
2018-06-05T03:28:30.431Z,24.00
2018-06-05T03:30:58.663Z,24.07
2018-06-05T03:33:26.870Z,25.67
2018-06-05T03:35:55.091Z,30.63
2018-06-05T03:38:23.289Z,26.03
2018-06-05T03:40:51.563Z,25.53
2018-06-05T03:43:19.798Z,23.70
2018-06-05T03:45:48.047Z,25.93
2018-06-05T03:48:16.267Z,25.17
2018-06-05T03:50:44.497Z,30.40
2018-06-05T03:53:12.718Z,27.20
2018-06-05T03:55:40.945Z,29.33
2018-06-05T03:58:09.185Z,28.80
2018-06-05T04:00:37.660Z,29.73
2018-06-05T04:03:05.903Z,27.53
2018-06-05T04:05:34.147Z,26.93
2018-06-05T04:08:02.369Z,28.90
2018-06-05T04:10:30.599Z,27.23
2018-06-05T04:12:58.874Z,26.43
2018-06-05T04:15:27.099Z,27.07
2018-06-05T04:17:55.327Z,26.50
2018-06-05T04:20:23.590Z,26.07
2018-06-05T04:22:51.817Z,27.37
2018-06-05T04:25:20.084Z,25.47
2018-06-05T04:27:48.321Z,25.80
2018-06-05T04:30:16.530Z,27.67
2018-06-05T04:32:44.760Z,28.13
2018-06-05T04:35:12.986Z,26.07
2018-06-05T04:37:41.267Z,30.17
2018-06-05T04:40:09.487Z,25.73
2018-06-05T04:42:37.680Z,31.83
2018-06-05T04:45:05.875Z,26.43
2018-06-05T04:47:34.109Z,28.20
2018-06-05T04:50:02.365Z,27.03
2018-06-05T04:52:30.612Z,28.17
2018-06-05T04:54:58.784Z,24.80
2018-06-05T04:57:26.971Z,25.37
2018-06-05T04:59:55.158Z,28.73
2018-06-05T05:02:23.414Z,24.30
2018-06-05T05:04:51.586Z,24.60
2018-06-05T05:07:19.773Z,24.67
2018-06-05T05:09:47.937Z,23.27
2018-06-05T05:12:16.132Z,22.27
2018-06-05T05:14:44.416Z,21.93
2018-06-05T05:17:12.638Z,21.57
2018-06-05T05:19:40.819Z,21.27
2018-06-05T05:22:09.013Z,20.43
2018-06-05T05:24:37.245Z,19.10
2018-06-05T05:27:05.430Z,19.30
2018-06-05T05:29:33.738Z,19.20
2018-06-05T05:32:01.950Z,17.17
2018-06-05T05:34:30.171Z,17.47
2018-06-05T05:36:58.356Z,16.97
2018-06-05T05:39:26.566Z,17.83
2018-06-05T05:41:54.892Z,15.30
2018-06-05T05:44:23.069Z,17.03
2018-06-05T05:46:51.264Z,14.83
2018-06-05T05:49:19.445Z,16.50
2018-06-05T05:51:47.630Z,15.87
2018-06-05T05:54:15.857Z,15.87
2018-06-05T05:56:44.053Z,14.00
2018-06-05T05:59:12.253Z,15.07
2018-06-05T06:01:40.440Z,14.40
2018-06-05T06:04:08.770Z,14.37
2018-06-05T06:06:36.986Z,14.10
2018-06-05T06:09:06.427Z,15.10
2018-06-05T06:11:34.667Z,15.20
2018-06-05T06:14:02.976Z,18.00
2018-06-05T06:16:31.212Z,14.20
2018-06-05T06:18:59.388Z,12.93
2018-06-05T06:21:27.598Z,13.67
2018-06-05T06:23:55.800Z,13.73
2018-06-05T06:26:23.986Z,14.13
2018-06-05T06:28:52.165Z,15.27
2018-06-05T06:31:20.387Z,14.17
2018-06-05T06:33:48.563Z,15.03
2018-06-05T06:36:16.804Z,14.97
2018-06-05T06:38:45.130Z,15.20
2018-06-05T06:41:13.339Z,17.50
2018-06-05T06:43:41.573Z,15.20
2018-06-05T06:46:09.781Z,15.23
2018-06-05T06:48:37.993Z,15.27
2018-06-05T06:51:06.216Z,14.97
2018-06-05T06:53:34.407Z,14.10
2018-06-05T06:56:02.626Z,14.97
2018-06-05T06:58:30.833Z,13.83
2018-06-05T07:00:59.028Z,13.37
2018-06-05T07:03:27.317Z,14.53
2018-06-05T07:05:56.361Z,14.20
2018-06-05T07:08:24.688Z,15.20
2018-06-05T07:10:52.886Z,17.13
2018-06-05T07:13:21.123Z,16.53
2018-06-05T07:15:49.322Z,17.40
2018-06-05T07:18:17.534Z,22.77
2018-06-05T07:20:45.838Z,20.53
2018-06-05T07:23:14.115Z,21.73
2018-06-05T07:25:42.502Z,23.10
2018-06-05T07:28:10.684Z,20.73
2018-06-05T07:30:38.880Z,21.53
2018-06-05T07:33:07.072Z,21.10
2018-06-05T07:35:35.329Z,19.27
2018-06-05T07:38:03.527Z,18.77
2018-06-05T07:40:31.730Z,20.17
2018-06-05T07:42:59.930Z,18.63
2018-06-05T07:45:28.117Z,21.00
2018-06-05T07:47:56.339Z,18.40
2018-06-05T07:50:24.561Z,20.30
2018-06-05T07:52:52.791Z,17.87
2018-06-05T07:55:21.063Z,20.40
2018-06-05T07:57:49.320Z,17.23
2018-06-05T08:00:17.520Z,15.70
2018-06-05T08:02:45.711Z,17.33
2018-06-05T08:05:13.891Z,17.03
2018-06-05T08:07:42.087Z,16.70
2018-06-05T08:10:10.298Z,17.53
2018-06-05T08:12:38.534Z,18.50
2018-06-05T08:15:06.754Z,17.17
2018-06-05T08:17:34.931Z,16.27
2018-06-05T08:20:03.136Z,16.13
2018-06-05T08:22:36.756Z,16.33
2018-06-05T08:25:04.957Z,16.57
2018-06-05T08:27:33.161Z,19.27
2018-06-05T08:30:01.389Z,17.70
2018-06-05T08:32:29.592Z,18.30
2018-06-05T08:34:57.833Z,16.60
2018-06-05T08:37:26.110Z,18.07
2018-06-05T08:39:54.320Z,19.60
2018-06-05T08:42:22.548Z,17.63
2018-06-05T08:44:50.741Z,18.33
2018-06-05T08:47:19.016Z,17.27
2018-06-05T08:49:47.200Z,19.17
2018-06-05T08:52:15.415Z,17.37
2018-06-05T08:54:43.720Z,16.90
2018-06-05T08:57:11.933Z,19.00
2018-06-05T08:59:40.139Z,15.60
2018-06-05T09:02:08.340Z,16.27
2018-06-05T09:04:36.539Z,15.77
2018-06-05T09:07:04.800Z,16.87
2018-06-05T09:09:33.045Z,17.03
2018-06-05T09:12:01.289Z,15.90
2018-06-05T09:14:29.485Z,25.03
2018-06-05T09:16:57.688Z,16.17
2018-06-05T09:19:25.889Z,17.87
2018-06-05T09:21:54.086Z,15.20
2018-06-05T09:24:22.322Z,11.77
2018-06-05T09:26:50.518Z,12.73
2018-06-05T09:29:18.702Z,13.63
2018-06-05T09:31:46.884Z,13.73
2018-06-05T09:34:15.152Z,13.00
2018-06-05T09:36:43.345Z,12.60
2018-06-05T09:39:11.602Z,13.07
2018-06-05T09:41:39.799Z,12.53
2018-06-05T09:44:08.012Z,14.40
2018-06-05T09:46:36.222Z,14.07
2018-06-05T09:49:04.436Z,10.53
2018-06-05T09:51:32.621Z,10.17
2018-06-05T09:54:00.878Z,9.40
2018-06-05T09:56:29.088Z,9.60
2018-06-05T09:58:57.282Z,10.30
2018-06-05T10:01:25.567Z,11.13
2018-06-05T10:03:53.794Z,10.13
2018-06-05T10:06:22.017Z,10.60
2018-06-05T10:08:50.204Z,9.90
2018-06-05T10:11:18.396Z,10.50
2018-06-05T10:13:46.637Z,10.27
2018-06-05T10:16:14.937Z,11.37
2018-06-05T10:18:43.155Z,13.27
2018-06-05T10:21:11.338Z,11.70
2018-06-05T10:23:39.541Z,10.67
2018-06-05T10:26:07.738Z,10.67
2018-06-05T10:28:35.951Z,10.47
2018-06-05T10:31:04.156Z,13.03
2018-06-05T10:33:32.365Z,13.63
2018-06-05T10:36:00.574Z,9.23
2018-06-05T10:38:28.808Z,10.73
2018-06-05T10:40:57.012Z,9.87
2018-06-05T10:43:25.258Z,10.80
2018-06-05T10:45:53.462Z,8.77
2018-06-05T10:48:21.671Z,10.47
2018-06-05T10:50:49.905Z,8.07
2018-06-05T10:53:18.078Z,8.90
2018-06-05T10:55:46.254Z,8.13
2018-06-05T10:58:14.453Z,8.18
2018-06-05T11:00:42.648Z,7.37
2018-06-05T11:03:10.846Z,7.53
2018-06-05T11:05:39.021Z,8.80
2018-06-05T11:08:07.302Z,7.50
2018-06-05T11:10:35.533Z,8.45
2018-06-05T11:13:03.753Z,7.65
2018-06-05T11:15:31.971Z,8.98
2018-06-05T11:18:00.223Z,10.38
2018-06-05T11:20:28.405Z,7.67
2018-06-05T11:22:56.643Z,9.05
2018-06-05T11:25:24.828Z,9.45
2018-06-05T11:27:52.996Z,8.28
2018-06-05T11:30:21.190Z,8.70
2018-06-05T11:32:49.391Z,7.78
2018-06-05T11:35:17.575Z,7.83
2018-06-05T11:37:45.775Z,7.40
2018-06-05T11:40:14.007Z,8.53
2018-06-05T11:42:42.219Z,11.65
2018-06-05T11:45:10.440Z,10.00
2018-06-05T11:47:39.502Z,10.50
2018-06-05T11:50:07.700Z,9.03
2018-06-05T11:52:35.907Z,8.43
2018-06-05T11:55:04.123Z,7.83
2018-06-05T11:57:32.314Z,7.42
2018-06-05T12:00:00.527Z,7.78
2018-06-05T12:02:28.739Z,9.35
2018-06-05T12:04:56.930Z,10.55
2018-06-05T12:07:25.131Z,7.60
2018-06-05T12:09:53.307Z,8.30
2018-06-05T12:12:21.521Z,8.45
2018-06-05T12:14:49.715Z,7.55
2018-06-05T12:17:17.901Z,7.67
2018-06-05T12:19:46.087Z,8.58
2018-06-05T12:22:14.288Z,8.90
2018-06-05T12:24:42.548Z,8.73
2018-06-05T12:27:10.762Z,10.10
2018-06-05T12:29:38.984Z,7.47
2018-06-05T12:32:07.224Z,7.58
2018-06-05T12:34:35.443Z,7.90
2018-06-05T12:37:03.651Z,8.95
2018-06-05T12:39:31.834Z,9.53
2018-06-05T12:42:00.051Z,9.10
2018-06-05T12:44:28.285Z,6.87
2018-06-05T12:46:56.499Z,9.15
2018-06-05T12:49:24.712Z,8.13
2018-06-05T12:51:52.915Z,7.28
2018-06-05T12:54:21.116Z,9.93
2018-06-05T12:56:49.359Z,11.28
2018-06-05T12:59:17.552Z,10.30
2018-06-05T13:01:45.759Z,7.87
2018-06-05T13:04:13.958Z,7.37
2018-06-05T13:06:42.157Z,8.28
2018-06-05T13:09:10.358Z,9.20
2018-06-05T13:11:38.552Z,7.20
2018-06-05T13:14:06.737Z,9.60
2018-06-05T13:16:34.979Z,9.93
2018-06-05T13:19:03.182Z,8.00
2018-06-05T13:21:31.408Z,7.20
2018-06-05T13:23:59.591Z,7.58
2018-06-05T13:26:27.834Z,9.40
2018-06-05T13:28:56.062Z,6.78
2018-06-05T13:31:24.266Z,6.87
2018-06-05T13:33:52.483Z,10.58
2018-06-05T13:36:20.682Z,8.03
2018-06-05T13:38:48.950Z,8.23
2018-06-05T13:41:17.245Z,11.68
2018-06-05T13:43:45.455Z,5.30
2018-06-05T13:46:13.658Z,10.50
2018-06-05T13:48:41.841Z,6.12
2018-06-05T13:51:10.060Z,8.08
2018-06-05T13:53:38.294Z,9.20
2018-06-05T13:56:06.501Z,7.53
2018-06-05T13:58:34.709Z,8.00
2018-06-05T14:01:02.932Z,5.65
2018-06-05T14:03:31.131Z,5.80
2018-06-05T14:05:59.333Z,7.65
2018-06-05T14:08:27.610Z,7.78
2018-06-05T14:10:55.841Z,9.63
2018-06-05T14:13:24.029Z,7.50
2018-06-05T14:15:52.231Z,6.45
2018-06-05T14:18:20.437Z,7.27
2018-06-05T14:20:48.693Z,10.90
2018-06-05T14:23:16.992Z,8.43
2018-06-05T14:25:45.190Z,10.93
2018-06-05T14:28:13.448Z,8.83
2018-06-05T14:30:41.642Z,7.00
2018-06-05T14:33:09.876Z,11.08
2018-06-05T14:35:38.149Z,9.18
2018-06-05T14:38:06.338Z,9.08
2018-06-05T14:40:34.530Z,9.17
2018-06-05T14:43:02.738Z,13.40
2018-06-05T14:45:31.059Z,13.53
2018-06-05T14:47:59.224Z,13.00
2018-06-05T14:50:27.434Z,12.87
2018-06-05T14:52:55.660Z,10.70
2018-06-05T14:55:23.866Z,15.83
2018-06-05T14:57:52.654Z,9.03
2018-06-05T15:00:20.847Z,9.47
2018-06-05T15:02:49.037Z,17.67
2018-06-05T15:05:17.229Z,13.60
2018-06-05T15:07:45.518Z,15.00
2018-06-05T15:10:13.721Z,8.90
2018-06-05T15:12:41.939Z,10.93
2018-06-05T15:15:10.108Z,9.17
2018-06-05T15:17:38.285Z,12.57
2018-06-05T15:20:06.474Z,11.13
2018-06-05T15:22:34.670Z,10.10
2018-06-05T15:25:02.900Z,14.27
2018-06-05T15:27:31.104Z,9.50
2018-06-05T15:29:59.283Z,12.43
2018-06-05T15:32:27.464Z,10.17
2018-06-05T15:34:55.646Z,12.87
2018-06-05T15:37:23.864Z,12.17
2018-06-05T15:39:52.046Z,12.40
2018-06-05T15:42:20.230Z,11.17
2018-06-05T15:44:48.496Z,13.33
2018-06-05T15:47:16.682Z,10.90
2018-06-05T15:49:44.954Z,13.50
2018-06-05T15:52:13.134Z,11.57
2018-06-05T15:54:41.365Z,8.57
2018-06-05T15:57:09.548Z,11.97
2018-06-05T15:59:37.748Z,9.97
2018-06-05T16:02:06.024Z,8.30
2018-06-05T16:04:34.278Z,14.03
2018-06-05T16:07:02.441Z,9.70
2018-06-05T16:09:30.665Z,12.07
2018-06-05T16:11:58.857Z,12.47
2018-06-05T16:14:27.220Z,8.33
2018-06-05T16:16:55.413Z,7.20
2018-06-05T16:19:23.663Z,8.67
2018-06-05T16:21:51.950Z,9.47
2018-06-05T16:24:20.126Z,10.23
2018-06-05T16:26:48.368Z,15.67
2018-06-05T16:29:16.615Z,8.23
2018-06-05T16:36:14.834Z,12.30
2018-06-05T16:38:43.114Z,10.43
2018-06-05T16:41:11.288Z,7.90
2018-06-05T16:43:39.482Z,6.73
2018-06-05T16:46:07.701Z,7.17
2018-06-05T16:48:35.882Z,9.00
2018-06-05T16:51:04.172Z,6.90
2018-06-05T16:53:32.357Z,6.23
2018-06-05T16:56:00.587Z,10.63
2018-06-05T16:58:28.781Z,10.57
2018-06-05T17:00:57.025Z,7.97
2018-06-05T17:03:25.245Z,9.73
2018-06-05T17:05:53.459Z,11.57
2018-06-05T17:08:21.645Z,8.50
2018-06-05T17:10:49.818Z,9.07
2018-06-05T17:13:18.064Z,9.83
2018-06-05T17:15:46.260Z,10.37
2018-06-05T17:18:14.429Z,9.73
2018-06-05T17:20:42.708Z,10.33
2018-06-05T17:23:10.891Z,8.87
2018-06-05T17:25:39.089Z,10.17
2018-06-05T17:28:07.297Z,9.50
2018-06-05T17:30:35.488Z,12.53
2018-06-05T17:33:03.691Z,9.93
2018-06-05T17:35:31.897Z,11.53
2018-06-05T17:38:00.149Z,9.67
2018-06-05T17:40:28.321Z,12.53
2018-06-05T17:42:56.485Z,11.27
2018-06-05T17:45:24.702Z,14.17
2018-06-05T17:47:52.879Z,11.20
2018-06-05T17:50:21.068Z,12.37
2018-06-05T17:52:49.247Z,14.20
2018-06-05T17:55:17.439Z,12.43
2018-06-05T17:57:45.660Z,12.07
2018-06-05T18:00:13.865Z,10.60
2018-06-05T18:02:42.049Z,12.33
2018-06-05T18:05:10.232Z,10.97
2018-06-05T18:07:38.407Z,11.90
2018-06-05T18:10:06.582Z,12.60
2018-06-05T18:12:34.829Z,12.20
2018-06-05T18:15:03.049Z,15.20
2018-06-05T18:17:31.229Z,12.53
2018-06-05T18:19:59.430Z,14.00
2018-06-05T18:22:27.600Z,12.57
2018-06-05T18:24:55.798Z,13.53
2018-06-05T18:27:24.050Z,14.03
2018-06-05T18:29:52.222Z,16.97
2018-06-05T18:32:20.418Z,14.27
2018-06-05T18:34:48.603Z,14.87
2018-06-05T18:37:16.896Z,30.47
2018-06-05T18:39:45.174Z,50.80
2018-06-05T18:42:13.355Z,49.40
2018-06-05T18:44:41.537Z,53.90
2018-06-05T18:47:09.717Z,40.33
2018-06-05T18:49:37.933Z,31.93
2018-06-05T18:52:06.145Z,31.53
2018-06-05T18:54:34.338Z,24.17
2018-06-05T18:57:02.530Z,61.67
2018-06-05T18:59:30.719Z,28.07
2018-06-05T19:01:59.274Z,27.87
2018-06-05T19:04:27.767Z,36.33
2018-06-05T19:06:56.201Z,17.67
2018-06-05T19:09:24.455Z,33.53
2018-06-05T19:11:52.646Z,18.43
2018-06-05T19:14:20.963Z,16.07
2018-06-05T19:16:49.230Z,16.87
2018-06-05T19:19:17.416Z,18.10
2018-06-05T19:21:45.614Z,19.83
2018-06-05T19:24:13.926Z,24.53
2018-06-05T19:26:42.142Z,26.63
2018-06-05T19:29:10.425Z,23.47
2018-06-05T19:31:38.675Z,18.57
2018-06-05T19:34:06.878Z,20.07
2018-06-05T19:36:35.065Z,18.70
2018-06-05T19:39:03.985Z,17.00
2018-06-05T19:41:32.252Z,19.57
2018-06-05T19:44:00.487Z,16.03
2018-06-05T19:46:28.721Z,18.23
2018-06-05T19:48:56.890Z,18.50
2018-06-05T19:51:25.079Z,18.37
2018-06-05T19:53:53.677Z,17.33
2018-06-05T19:56:21.861Z,15.63
2018-06-05T19:58:50.058Z,18.00
2018-06-05T20:01:18.254Z,17.77
2018-06-05T20:03:46.458Z,21.27
2018-06-05T20:06:14.656Z,19.63
2018-06-05T20:08:42.837Z,20.10
2018-06-05T20:11:11.061Z,19.03
2018-06-05T20:13:39.277Z,20.03
2018-06-05T20:16:07.504Z,17.50
2018-06-05T20:18:35.813Z,20.93
2018-06-05T20:21:04.153Z,18.60
2018-06-05T20:23:32.334Z,16.97
2018-06-05T20:26:00.513Z,18.07
2018-06-05T20:28:28.680Z,17.20
2018-06-05T20:30:56.874Z,17.17
2018-06-05T20:33:25.071Z,17.13
2018-06-05T20:35:53.291Z,18.77
2018-06-05T20:38:21.547Z,18.47
2018-06-05T20:40:49.730Z,21.37
2018-06-05T20:43:17.919Z,22.77
2018-06-05T20:45:46.157Z,19.77
2018-06-05T20:48:14.388Z,22.07
2018-06-05T20:50:42.610Z,20.80
2018-06-05T20:53:10.800Z,19.10
2018-06-05T20:55:39.002Z,23.07
2018-06-05T20:58:07.245Z,20.13
2018-06-05T21:00:35.437Z,18.83
2018-06-05T21:03:03.743Z,19.47
2018-06-05T21:05:31.952Z,20.80
2018-06-05T21:08:00.143Z,21.43
2018-06-05T21:10:28.382Z,23.13
2018-06-05T21:12:56.582Z,21.57
2018-06-05T21:15:24.764Z,22.10
2018-06-05T21:17:52.936Z,21.30
2018-06-05T21:20:21.119Z,22.80
2018-06-05T21:22:49.332Z,21.50
2018-06-05T21:25:17.512Z,23.23
2018-06-05T21:27:45.714Z,22.97
2018-06-05T21:30:13.950Z,22.53
2018-06-05T21:32:42.137Z,25.60
2018-06-05T21:35:10.326Z,20.03
2018-06-05T21:37:38.514Z,19.07
2018-06-05T21:40:06.734Z,19.30
2018-06-05T21:42:34.951Z,20.97
2018-06-05T21:45:03.194Z,18.30
2018-06-05T21:47:31.374Z,18.73
2018-06-05T21:49:59.563Z,17.83
2018-06-05T21:52:27.737Z,19.17
2018-06-05T21:54:56.014Z,19.07
2018-06-05T21:57:24.284Z,17.13
2018-06-05T21:59:52.526Z,13.03
2018-06-05T22:02:20.721Z,10.93
2018-06-05T22:04:48.998Z,10.50
2018-06-05T22:07:17.169Z,7.70
2018-06-05T22:09:46.127Z,6.50
2018-06-05T22:12:14.425Z,9.03
2018-06-05T22:14:42.708Z,11.50
2018-06-05T22:17:10.932Z,10.67
2018-06-05T22:19:39.170Z,6.10
2018-06-05T22:22:07.457Z,7.33
2018-06-05T22:24:35.675Z,8.07
2018-06-05T22:27:03.884Z,6.77
2018-06-05T22:29:32.106Z,6.80
2018-06-05T22:32:00.368Z,7.13
2018-06-05T22:34:28.667Z,6.27
2018-06-05T22:36:56.883Z,6.80
2018-06-05T22:39:25.119Z,4.60
2018-06-05T22:41:53.402Z,7.47
2018-06-05T22:44:21.646Z,5.77
2018-06-05T22:46:49.914Z,6.00
2018-06-05T22:49:18.151Z,7.97
2018-06-05T22:51:46.404Z,7.00
2018-06-05T22:54:14.689Z,5.73
2018-06-05T22:56:42.977Z,5.27
2018-06-05T22:59:11.237Z,4.50
2018-06-05T23:01:39.504Z,13.10
2018-06-05T23:04:07.739Z,8.23
2018-06-05T23:06:35.968Z,11.37
2018-06-05T23:09:05.782Z,4.97
2018-06-05T23:11:34.303Z,3.97
2018-06-05T23:14:02.560Z,7.03
2018-06-05T23:16:30.803Z,8.17
2018-06-05T23:18:59.049Z,5.23
2018-06-05T23:21:27.314Z,6.80
2018-06-05T23:23:55.556Z,5.43
2018-06-05T23:26:23.852Z,8.43
2018-06-05T23:28:52.072Z,4.97
2018-06-05T23:31:20.322Z,5.93
2018-06-05T23:33:48.584Z,5.50
2018-06-05T23:36:16.879Z,10.70
2018-06-05T23:38:45.184Z,7.13
2018-06-05T23:41:13.471Z,4.47
2018-06-05T23:43:41.749Z,5.57
2018-06-05T23:46:10.005Z,8.03
2018-06-05T23:48:38.256Z,6.93
2018-06-05T23:51:06.549Z,6.10
2018-06-05T23:53:34.803Z,4.67
2018-06-05T23:56:03.047Z,7.10
2018-06-05T23:58:31.307Z,6.00
